sensor_id;sensor_type;location;lat;lon;timestamp;temperature;humidity
51637;DHT22;37713;53.254;6.460;2023-05-19T00:00:55;7.10;99.90
51637;DHT22;37713;53.254;6.460;2023-05-19T00:03:22;7.10;99.90
51637;DHT22;37713;53.254;6.460;2023-05-19T00:05:52;7.00;99.90
51637;DHT22;37713;53.254;6.460;2023-05-19T00:08:18;7.00;99.90
51637;DHT22;37713;53.254;6.460;2023-05-19T00:10:45;7.00;99.90
51637;DHT22;37713;53.254;6.460;2023-05-19T00:13:11;6.90;99.90
51637;DHT22;37713;53.254;6.460;2023-05-19T00:15:37;6.90;99.90
51637;DHT22;37713;53.254;6.460;2023-05-19T00:18:03;6.90;99.90
51637;DHT22;37713;53.254;6.460;2023-05-19T00:20:29;6.80;99.90
51637;DHT22;37713;53.254;6.460;2023-05-19T00:22:57;6.80;99.90
51637;DHT22;37713;53.254;6.460;2023-05-19T00:25:23;6.80;99.90
51637;DHT22;37713;53.254;6.460;2023-05-19T00:27:49;6.80;99.90
51637;DHT22;37713;53.254;6.460;2023-05-19T00:30:15;6.70;99.90
51637;DHT22;37713;53.254;6.460;2023-05-19T00:32:40;6.70;99.90
51637;DHT22;37713;53.254;6.460;2023-05-19T00:35:06;6.70;99.90
51637;DHT22;37713;53.254;6.460;2023-05-19T00:37:32;6.70;99.90
51637;DHT22;37713;53.254;6.460;2023-05-19T00:39:58;6.60;99.90
51637;DHT22;37713;53.254;6.460;2023-05-19T00:42:24;6.60;99.90
51637;DHT22;37713;53.254;6.460;2023-05-19T00:44:50;6.60;99.90
51637;DHT22;37713;53.254;6.460;2023-05-19T00:47:16;6.60;99.90
51637;DHT22;37713;53.254;6.460;2023-05-19T00:49:42;6.60;99.90
51637;DHT22;37713;53.254;6.460;2023-05-19T00:52:08;6.60;99.90
51637;DHT22;37713;53.254;6.460;2023-05-19T00:54:34;6.60;99.90
51637;DHT22;37713;53.254;6.460;2023-05-19T00:57:00;6.60;99.90
51637;DHT22;37713;53.254;6.460;2023-05-19T00:59:26;6.60;99.90
51637;DHT22;37713;53.254;6.460;2023-05-19T01:01:52;6.70;99.90
51637;DHT22;37713;53.254;6.460;2023-05-19T01:04:19;6.70;99.90
51637;DHT22;37713;53.254;6.460;2023-05-19T01:06:49;6.70;99.90
51637;DHT22;37713;53.254;6.460;2023-05-19T01:09:20;6.70;99.90
51637;DHT22;37713;53.254;6.460;2023-05-19T01:11:50;6.70;99.90
51637;DHT22;37713;53.254;6.460;2023-05-19T01:14:16;6.70;99.90
51637;DHT22;37713;53.254;6.460;2023-05-19T01:16:46;6.70;99.90
51637;DHT22;37713;53.254;6.460;2023-05-19T01:19:44;6.70;99.90
51637;DHT22;37713;53.254;6.460;2023-05-19T01:30:14;6.60;99.90
51637;DHT22;37713;53.254;6.460;2023-05-19T01:32:41;6.60;99.90
51637;DHT22;37713;53.254;6.460;2023-05-19T01:35:11;6.60;99.90
51637;DHT22;37713;53.254;6.460;2023-05-19T01:37:40;6.70;99.90
51637;DHT22;37713;53.254;6.460;2023-05-19T01:40:07;6.60;99.90
51637;DHT22;37713;53.254;6.460;2023-05-19T01:42:33;6.60;99.90
51637;DHT22;37713;53.254;6.460;2023-05-19T01:45:03;6.60;99.90
51637;DHT22;37713;53.254;6.460;2023-05-19T01:47:33;6.60;99.90
51637;DHT22;37713;53.254;6.460;2023-05-19T01:50:03;6.60;99.90
51637;DHT22;37713;53.254;6.460;2023-05-19T01:52:28;6.60;99.90
51637;DHT22;37713;53.254;6.460;2023-05-19T01:54:54;6.60;99.90
51637;DHT22;37713;53.254;6.460;2023-05-19T01:57:26;6.60;99.90
51637;DHT22;37713;53.254;6.460;2023-05-19T02:00:09;6.60;99.90
51637;DHT22;37713;53.254;6.460;2023-05-19T02:03:13;6.60;99.90
51637;DHT22;37713;53.254;6.460;2023-05-19T02:05:51;6.60;99.90
51637;DHT22;37713;53.254;6.460;2023-05-19T02:08:26;6.60;99.90
51637;DHT22;37713;53.254;6.460;2023-05-19T02:11:22;6.60;99.90
51637;DHT22;37713;53.254;6.460;2023-05-19T02:13:54;6.50;99.90
51637;DHT22;37713;53.254;6.460;2023-05-19T02:16:25;6.50;99.90
51637;DHT22;37713;53.254;6.460;2023-05-19T02:18:52;6.50;99.90
51637;DHT22;37713;53.254;6.460;2023-05-19T02:21:19;6.50;99.90
51637;DHT22;37713;53.254;6.460;2023-05-19T02:23:45;6.50;99.90
51637;DHT22;37713;53.254;6.460;2023-05-19T02:26:11;6.50;99.90
51637;DHT22;37713;53.254;6.460;2023-05-19T02:28:36;6.50;99.90
51637;DHT22;37713;53.254;6.460;2023-05-19T02:31:02;6.50;99.90
51637;DHT22;37713;53.254;6.460;2023-05-19T02:33:30;6.40;99.90
51637;DHT22;37713;53.254;6.460;2023-05-19T02:35:56;6.40;99.90
51637;DHT22;37713;53.254;6.460;2023-05-19T02:38:22;6.40;99.90
51637;DHT22;37713;53.254;6.460;2023-05-19T02:40:50;6.40;99.90
51637;DHT22;37713;53.254;6.460;2023-05-19T02:43:17;6.40;99.90
51637;DHT22;37713;53.254;6.460;2023-05-19T02:45:42;6.40;99.90
51637;DHT22;37713;53.254;6.460;2023-05-19T02:48:08;6.40;99.90
51637;DHT22;37713;53.254;6.460;2023-05-19T02:50:34;6.40;99.90
51637;DHT22;37713;53.254;6.460;2023-05-19T02:52:59;6.40;99.90
51637;DHT22;37713;53.254;6.460;2023-05-19T02:55:27;6.40;99.90
51637;DHT22;37713;53.254;6.460;2023-05-19T02:57:52;6.30;99.90
51637;DHT22;37713;53.254;6.460;2023-05-19T03:00:18;6.30;99.90
51637;DHT22;37713;53.254;6.460;2023-05-19T03:02:44;6.30;99.90
51637;DHT22;37713;53.254;6.460;2023-05-19T03:05:10;6.30;99.90
51637;DHT22;37713;53.254;6.460;2023-05-19T03:07:36;6.30;99.90
51637;DHT22;37713;53.254;6.460;2023-05-19T03:10:02;6.30;99.90
51637;DHT22;37713;53.254;6.460;2023-05-19T03:12:28;6.30;99.90
51637;DHT22;37713;53.254;6.460;2023-05-19T03:14:54;6.30;99.90
51637;DHT22;37713;53.254;6.460;2023-05-19T03:17:20;6.30;99.90
51637;DHT22;37713;53.254;6.460;2023-05-19T03:19:46;6.30;99.90
51637;DHT22;37713;53.254;6.460;2023-05-19T03:22:11;6.30;99.90
51637;DHT22;37713;53.254;6.460;2023-05-19T03:24:37;6.30;99.90
51637;DHT22;37713;53.254;6.460;2023-05-19T03:27:04;6.20;99.90
51637;DHT22;37713;53.254;6.460;2023-05-19T03:29:30;6.20;99.90
51637;DHT22;37713;53.254;6.460;2023-05-19T03:31:56;6.20;99.90
51637;DHT22;37713;53.254;6.460;2023-05-19T03:34:21;6.20;99.90
51637;DHT22;37713;53.254;6.460;2023-05-19T03:36:47;6.20;99.90
51637;DHT22;37713;53.254;6.460;2023-05-19T03:39:15;6.30;99.90
51637;DHT22;37713;53.254;6.460;2023-05-19T03:41:41;6.20;99.90
51637;DHT22;37713;53.254;6.460;2023-05-19T03:44:07;6.30;99.90
51637;DHT22;37713;53.254;6.460;2023-05-19T03:46:33;6.20;99.90
51637;DHT22;37713;53.254;6.460;2023-05-19T03:48:58;6.30;99.90
51637;DHT22;37713;53.254;6.460;2023-05-19T03:51:24;6.30;99.90
51637;DHT22;37713;53.254;6.460;2023-05-19T03:53:53;6.20;99.90
51637;DHT22;37713;53.254;6.460;2023-05-19T03:56:18;6.30;99.90
51637;DHT22;37713;53.254;6.460;2023-05-19T03:58:47;6.20;99.90
51637;DHT22;37713;53.254;6.460;2023-05-19T04:01:14;6.20;99.90
51637;DHT22;37713;53.254;6.460;2023-05-19T04:03:40;6.20;99.90
51637;DHT22;37713;53.254;6.460;2023-05-19T04:06:06;6.20;99.90
51637;DHT22;37713;53.254;6.460;2023-05-19T04:08:32;6.30;99.90
51637;DHT22;37713;53.254;6.460;2023-05-19T04:10:58;6.30;99.90
51637;DHT22;37713;53.254;6.460;2023-05-19T04:13:23;6.30;99.90
51637;DHT22;37713;53.254;6.460;2023-05-19T04:15:49;6.40;99.90
51637;DHT22;37713;53.254;6.460;2023-05-19T04:18:15;6.50;99.90
51637;DHT22;37713;53.254;6.460;2023-05-19T04:20:41;6.50;99.90
51637;DHT22;37713;53.254;6.460;2023-05-19T04:23:07;6.50;99.90
51637;DHT22;37713;53.254;6.460;2023-05-19T04:25:33;6.50;99.90
51637;DHT22;37713;53.254;6.460;2023-05-19T04:28:00;6.60;99.90
51637;DHT22;37713;53.254;6.460;2023-05-19T04:30:27;6.60;99.90
51637;DHT22;37713;53.254;6.460;2023-05-19T04:32:53;6.70;99.90
51637;DHT22;37713;53.254;6.460;2023-05-19T04:35:20;6.70;99.90
51637;DHT22;37713;53.254;6.460;2023-05-19T04:37:46;6.80;99.90
51637;DHT22;37713;53.254;6.460;2023-05-19T04:40:13;6.80;99.90
51637;DHT22;37713;53.254;6.460;2023-05-19T04:42:38;6.90;99.90
51637;DHT22;37713;53.254;6.460;2023-05-19T04:45:06;7.00;99.90
51637;DHT22;37713;53.254;6.460;2023-05-19T04:47:34;7.00;99.90
51637;DHT22;37713;53.254;6.460;2023-05-19T04:50:03;7.10;99.90
51637;DHT22;37713;53.254;6.460;2023-05-19T04:52:29;7.20;99.90
51637;DHT22;37713;53.254;6.460;2023-05-19T04:54:55;7.30;99.90
51637;DHT22;37713;53.254;6.460;2023-05-19T04:57:21;7.30;99.90
51637;DHT22;37713;53.254;6.460;2023-05-19T04:59:46;7.40;99.90
51637;DHT22;37713;53.254;6.460;2023-05-19T05:02:12;7.50;99.90
51637;DHT22;37713;53.254;6.460;2023-05-19T05:04:38;7.60;99.90
51637;DHT22;37713;53.254;6.460;2023-05-19T05:07:07;7.70;99.90
51637;DHT22;37713;53.254;6.460;2023-05-19T05:09:33;7.80;99.90
51637;DHT22;37713;53.254;6.460;2023-05-19T05:12:00;7.90;99.90
51637;DHT22;37713;53.254;6.460;2023-05-19T05:14:26;8.00;99.90
51637;DHT22;37713;53.254;6.460;2023-05-19T05:16:53;8.10;99.90
51637;DHT22;37713;53.254;6.460;2023-05-19T05:19:19;8.20;99.90
51637;DHT22;37713;53.254;6.460;2023-05-19T05:21:46;8.30;99.90
51637;DHT22;37713;53.254;6.460;2023-05-19T05:24:13;8.40;99.90
51637;DHT22;37713;53.254;6.460;2023-05-19T05:26:39;8.50;99.90
51637;DHT22;37713;53.254;6.460;2023-05-19T05:29:05;8.60;99.90
51637;DHT22;37713;53.254;6.460;2023-05-19T05:31:31;8.70;99.90
51637;DHT22;37713;53.254;6.460;2023-05-19T05:33:57;8.80;99.90
51637;DHT22;37713;53.254;6.460;2023-05-19T05:36:23;8.90;99.90
51637;DHT22;37713;53.254;6.460;2023-05-19T05:38:48;9.00;99.90
51637;DHT22;37713;53.254;6.460;2023-05-19T05:41:14;9.00;99.90
51637;DHT22;37713;53.254;6.460;2023-05-19T05:43:40;9.10;99.90
51637;DHT22;37713;53.254;6.460;2023-05-19T05:46:06;9.20;99.90
51637;DHT22;37713;53.254;6.460;2023-05-19T05:48:32;9.30;99.90
51637;DHT22;37713;53.254;6.460;2023-05-19T05:50:58;9.50;99.90
51637;DHT22;37713;53.254;6.460;2023-05-19T05:53:29;9.50;99.90
51637;DHT22;37713;53.254;6.460;2023-05-19T05:55:55;9.60;99.90
51637;DHT22;37713;53.254;6.460;2023-05-19T05:58:21;9.70;99.90
51637;DHT22;37713;53.254;6.460;2023-05-19T06:00:47;9.80;99.90
51637;DHT22;37713;53.254;6.460;2023-05-19T06:03:13;9.90;99.90
51637;DHT22;37713;53.254;6.460;2023-05-19T06:05:41;10.00;99.90
51637;DHT22;37713;53.254;6.460;2023-05-19T06:08:06;10.10;99.90
51637;DHT22;37713;53.254;6.460;2023-05-19T06:10:32;10.20;99.90
51637;DHT22;37713;53.254;6.460;2023-05-19T06:13:00;10.40;99.90
51637;DHT22;37713;53.254;6.460;2023-05-19T06:15:25;10.60;99.90
51637;DHT22;37713;53.254;6.460;2023-05-19T06:17:51;10.80;99.90
51637;DHT22;37713;53.254;6.460;2023-05-19T06:20:17;11.00;99.90
51637;DHT22;37713;53.254;6.460;2023-05-19T06:22:43;11.20;99.90
51637;DHT22;37713;53.254;6.460;2023-05-19T06:25:09;11.50;99.90
51637;DHT22;37713;53.254;6.460;2023-05-19T06:27:35;11.80;99.90
51637;DHT22;37713;53.254;6.460;2023-05-19T06:32:27;12.70;99.90
51637;DHT22;37713;53.254;6.460;2023-05-19T06:34:54;13.90;99.90
51637;DHT22;37713;53.254;6.460;2023-05-19T06:37:23;15.20;99.90
51637;DHT22;37713;53.254;6.460;2023-05-19T06:39:51;16.50;99.90
51637;DHT22;37713;53.254;6.460;2023-05-19T06:42:18;17.50;99.90
51637;DHT22;37713;53.254;6.460;2023-05-19T06:44:48;18.40;99.90
51637;DHT22;37713;53.254;6.460;2023-05-19T06:47:14;18.90;99.90
51637;DHT22;37713;53.254;6.460;2023-05-19T06:49:40;19.50;99.90
51637;DHT22;37713;53.254;6.460;2023-05-19T06:52:07;20.00;99.90
51637;DHT22;37713;53.254;6.460;2023-05-19T06:54:32;20.30;99.90
51637;DHT22;37713;53.254;6.460;2023-05-19T06:56:58;20.50;99.90
51637;DHT22;37713;53.254;6.460;2023-05-19T06:59:24;20.50;99.90
51637;DHT22;37713;53.254;6.460;2023-05-19T07:01:50;20.40;99.90
51637;DHT22;37713;53.254;6.460;2023-05-19T07:04:16;20.70;99.90
51637;DHT22;37713;53.254;6.460;2023-05-19T07:06:41;21.00;99.90
51637;DHT22;37713;53.254;6.460;2023-05-19T07:09:07;21.20;99.90
51637;DHT22;37713;53.254;6.460;2023-05-19T07:11:33;21.40;99.90
51637;DHT22;37713;53.254;6.460;2023-05-19T07:13:59;21.90;99.90
51637;DHT22;37713;53.254;6.460;2023-05-19T07:16:25;22.10;99.90
51637;DHT22;37713;53.254;6.460;2023-05-19T07:18:51;22.50;99.90
51637;DHT22;37713;53.254;6.460;2023-05-19T07:21:17;22.70;99.90
51637;DHT22;37713;53.254;6.460;2023-05-19T07:23:42;22.80;99.90
51637;DHT22;37713;53.254;6.460;2023-05-19T07:26:08;23.00;99.90
51637;DHT22;37713;53.254;6.460;2023-05-19T07:28:34;23.10;99.90
51637;DHT22;37713;53.254;6.460;2023-05-19T07:31:00;23.30;99.90
51637;DHT22;37713;53.254;6.460;2023-05-19T07:33:26;23.60;99.90
51637;DHT22;37713;53.254;6.460;2023-05-19T07:35:52;23.70;99.90
51637;DHT22;37713;53.254;6.460;2023-05-19T07:38:18;23.80;99.90
51637;DHT22;37713;53.254;6.460;2023-05-19T07:40:44;23.80;99.90
51637;DHT22;37713;53.254;6.460;2023-05-19T07:43:09;23.80;99.90
51637;DHT22;37713;53.254;6.460;2023-05-19T07:45:36;23.80;99.90
51637;DHT22;37713;53.254;6.460;2023-05-19T07:48:02;23.70;99.90
51637;DHT22;37713;53.254;6.460;2023-05-19T07:50:28;23.60;99.90
51637;DHT22;37713;53.254;6.460;2023-05-19T07:52:54;23.80;99.90
51637;DHT22;37713;53.254;6.460;2023-05-19T07:55:20;23.70;99.90
51637;DHT22;37713;53.254;6.460;2023-05-19T07:57:48;23.80;99.90
51637;DHT22;37713;53.254;6.460;2023-05-19T08:00:15;23.90;99.90
51637;DHT22;37713;53.254;6.460;2023-05-19T08:02:40;23.70;99.90
51637;DHT22;37713;53.254;6.460;2023-05-19T08:05:07;23.60;99.90
51637;DHT22;37713;53.254;6.460;2023-05-19T08:07:34;23.50;99.90
51637;DHT22;37713;53.254;6.460;2023-05-19T08:10:00;23.50;99.90
51637;DHT22;37713;53.254;6.460;2023-05-19T08:12:27;23.50;99.90
51637;DHT22;37713;53.254;6.460;2023-05-19T08:14:52;23.70;99.90
51637;DHT22;37713;53.254;6.460;2023-05-19T08:17:18;23.50;99.90
51637;DHT22;37713;53.254;6.460;2023-05-19T08:19:44;23.50;99.90
51637;DHT22;37713;53.254;6.460;2023-05-19T08:22:10;23.40;99.90
51637;DHT22;37713;53.254;6.460;2023-05-19T08:24:36;23.20;99.90
51637;DHT22;37713;53.254;6.460;2023-05-19T08:27:03;23.20;99.90
51637;DHT22;37713;53.254;6.460;2023-05-19T08:29:29;23.10;99.90
51637;DHT22;37713;53.254;6.460;2023-05-19T08:31:56;23.00;99.90
51637;DHT22;37713;53.254;6.460;2023-05-19T08:34:23;22.70;99.90
51637;DHT22;37713;53.254;6.460;2023-05-19T08:36:48;22.60;99.90
51637;DHT22;37713;53.254;6.460;2023-05-19T08:39:15;22.60;99.90
51637;DHT22;37713;53.254;6.460;2023-05-19T08:41:42;22.50;99.90
51637;DHT22;37713;53.254;6.460;2023-05-19T08:44:08;22.30;99.90
51637;DHT22;37713;53.254;6.460;2023-05-19T08:46:34;22.20;99.90
51637;DHT22;37713;53.254;6.460;2023-05-19T08:49:11;22.00;99.90
51637;DHT22;37713;53.254;6.460;2023-05-19T08:52:00;22.00;99.90
51637;DHT22;37713;53.254;6.460;2023-05-19T08:54:36;21.90;99.90
51637;DHT22;37713;53.254;6.460;2023-05-19T08:57:05;21.70;99.90
51637;DHT22;37713;53.254;6.460;2023-05-19T08:59:31;21.20;99.90
51637;DHT22;37713;53.254;6.460;2023-05-19T09:01:58;20.90;99.90
51637;DHT22;37713;53.254;6.460;2023-05-19T09:04:24;20.60;99.90
51637;DHT22;37713;53.254;6.460;2023-05-19T09:06:52;20.30;99.90
51637;DHT22;37713;53.254;6.460;2023-05-19T09:09:18;20.10;99.90
51637;DHT22;37713;53.254;6.460;2023-05-19T09:11:45;20.10;99.90
51637;DHT22;37713;53.254;6.460;2023-05-19T09:14:11;19.80;99.90
51637;DHT22;37713;53.254;6.460;2023-05-19T09:16:38;20.00;99.90
51637;DHT22;37713;53.254;6.460;2023-05-19T09:19:03;20.10;99.90
51637;DHT22;37713;53.254;6.460;2023-05-19T09:21:30;20.20;99.90
51637;DHT22;37713;53.254;6.460;2023-05-19T09:24:06;20.20;99.90
51637;DHT22;37713;53.254;6.460;2023-05-19T09:26:41;20.10;99.90
51637;DHT22;37713;53.254;6.460;2023-05-19T09:29:14;20.10;99.90
51637;DHT22;37713;53.254;6.460;2023-05-19T09:31:54;20.10;99.90
51637;DHT22;37713;53.254;6.460;2023-05-19T09:34:20;20.10;99.90
51637;DHT22;37713;53.254;6.460;2023-05-19T09:36:52;20.00;99.90
51637;DHT22;37713;53.254;6.460;2023-05-19T09:39:19;20.00;99.90
51637;DHT22;37713;53.254;6.460;2023-05-19T09:41:46;20.10;99.90
51637;DHT22;37713;53.254;6.460;2023-05-19T09:44:22;20.00;99.90
51637;DHT22;37713;53.254;6.460;2023-05-19T09:46:52;19.80;99.90
51637;DHT22;37713;53.254;6.460;2023-05-19T09:49:25;19.70;99.90
51637;DHT22;37713;53.254;6.460;2023-05-19T09:51:54;19.90;99.90
51637;DHT22;37713;53.254;6.460;2023-05-19T09:54:22;19.90;99.90
51637;DHT22;37713;53.254;6.460;2023-05-19T09:56:59;19.80;99.90
51637;DHT22;37713;53.254;6.460;2023-05-19T09:59:26;19.70;99.60
51637;DHT22;37713;53.254;6.460;2023-05-19T10:01:54;19.50;99.70
51637;DHT22;37713;53.254;6.460;2023-05-19T10:04:22;19.40;99.90
51637;DHT22;37713;53.254;6.460;2023-05-19T10:06:53;19.50;99.90
51637;DHT22;37713;53.254;6.460;2023-05-19T10:09:23;19.60;99.90
51637;DHT22;37713;53.254;6.460;2023-05-19T10:11:52;19.50;99.90
51637;DHT22;37713;53.254;6.460;2023-05-19T10:14:23;19.60;99.90
51637;DHT22;37713;53.254;6.460;2023-05-19T10:16:57;19.60;99.90
51637;DHT22;37713;53.254;6.460;2023-05-19T10:19:26;19.70;99.90
51637;DHT22;37713;53.254;6.460;2023-05-19T10:21:53;19.70;99.90
51637;DHT22;37713;53.254;6.460;2023-05-19T10:24:19;19.70;99.90
51637;DHT22;37713;53.254;6.460;2023-05-19T10:27:07;19.70;99.40
51637;DHT22;37713;53.254;6.460;2023-05-19T10:29:38;19.70;99.90
51637;DHT22;37713;53.254;6.460;2023-05-19T10:32:09;19.70;99.90
51637;DHT22;37713;53.254;6.460;2023-05-19T10:37:53;19.30;99.10
51637;DHT22;37713;53.254;6.460;2023-05-19T10:40:32;19.30;99.20
51637;DHT22;37713;53.254;6.460;2023-05-19T10:45:53;19.10;98.60
51637;DHT22;37713;53.254;6.460;2023-05-19T10:48:20;19.10;99.40
51637;DHT22;37713;53.254;6.460;2023-05-19T10:50:47;19.10;99.70
51637;DHT22;37713;53.254;6.460;2023-05-19T10:53:17;19.20;99.90
51637;DHT22;37713;53.254;6.460;2023-05-19T10:55:51;19.20;99.90
51637;DHT22;37713;53.254;6.460;2023-05-19T10:58:37;19.20;99.90
51637;DHT22;37713;53.254;6.460;2023-05-19T11:01:16;19.20;99.90
51637;DHT22;37713;53.254;6.460;2023-05-19T11:03:50;19.20;99.80
51637;DHT22;37713;53.254;6.460;2023-05-19T11:06:26;19.10;99.50
51637;DHT22;37713;53.254;6.460;2023-05-19T11:08:58;19.00;99.90
51637;DHT22;37713;53.254;6.460;2023-05-19T11:11:26;19.00;99.60
51637;DHT22;37713;53.254;6.460;2023-05-19T11:13:53;18.90;99.50
51637;DHT22;37713;53.254;6.460;2023-05-19T11:16:31;18.90;99.80
51637;DHT22;37713;53.254;6.460;2023-05-19T11:19:00;18.90;99.90
51637;DHT22;37713;53.254;6.460;2023-05-19T11:21:48;18.80;99.80
51637;DHT22;37713;53.254;6.460;2023-05-19T11:26:58;18.50;99.90
51637;DHT22;37713;53.254;6.460;2023-05-19T11:29:23;18.50;99.90
51637;DHT22;37713;53.254;6.460;2023-05-19T11:31:50;18.60;99.90
51637;DHT22;37713;53.254;6.460;2023-05-19T11:34:16;18.50;99.90
51637;DHT22;37713;53.254;6.460;2023-05-19T11:36:43;18.50;99.90
51637;DHT22;37713;53.254;6.460;2023-05-19T11:39:10;18.40;99.90
51637;DHT22;37713;53.254;6.460;2023-05-19T11:41:39;18.60;99.90
51637;DHT22;37713;53.254;6.460;2023-05-19T11:44:11;18.60;99.90
51637;DHT22;37713;53.254;6.460;2023-05-19T11:46:37;18.80;99.90
51637;DHT22;37713;53.254;6.460;2023-05-19T11:49:04;18.80;99.90
51637;DHT22;37713;53.254;6.460;2023-05-19T11:51:30;18.80;99.90
51637;DHT22;37713;53.254;6.460;2023-05-19T11:53:57;18.70;99.90
51637;DHT22;37713;53.254;6.460;2023-05-19T11:56:22;18.80;99.90
51637;DHT22;37713;53.254;6.460;2023-05-19T11:58:48;18.80;99.90
51637;DHT22;37713;53.254;6.460;2023-05-19T12:01:17;18.70;99.90
51637;DHT22;37713;53.254;6.460;2023-05-19T12:03:43;18.70;99.90
51637;DHT22;37713;53.254;6.460;2023-05-19T12:06:09;18.80;99.90
51637;DHT22;37713;53.254;6.460;2023-05-19T12:08:35;18.70;99.90
51637;DHT22;37713;53.254;6.460;2023-05-19T12:11:01;18.60;99.90
51637;DHT22;37713;53.254;6.460;2023-05-19T12:13:28;18.80;99.90
51637;DHT22;37713;53.254;6.460;2023-05-19T12:15:58;18.90;99.90
51637;DHT22;37713;53.254;6.460;2023-05-19T12:18:30;18.90;99.90
51637;DHT22;37713;53.254;6.460;2023-05-19T12:21:00;18.90;99.90
51637;DHT22;37713;53.254;6.460;2023-05-19T12:23:27;19.10;99.90
51637;DHT22;37713;53.254;6.460;2023-05-19T12:25:56;19.20;99.90
51637;DHT22;37713;53.254;6.460;2023-05-19T12:28:23;19.20;99.90
51637;DHT22;37713;53.254;6.460;2023-05-19T12:30:52;19.00;99.60
51637;DHT22;37713;53.254;6.460;2023-05-19T12:33:18;18.80;99.40
51637;DHT22;37713;53.254;6.460;2023-05-19T12:35:45;18.80;99.80
51637;DHT22;37713;53.254;6.460;2023-05-19T12:38:13;18.90;99.40
51637;DHT22;37713;53.254;6.460;2023-05-19T12:40:41;19.00;99.80
51637;DHT22;37713;53.254;6.460;2023-05-19T12:43:07;19.30;99.50
51637;DHT22;37713;53.254;6.460;2023-05-19T12:45:35;19.50;99.70
51637;DHT22;37713;53.254;6.460;2023-05-19T12:48:11;19.60;99.90
51637;DHT22;37713;53.254;6.460;2023-05-19T12:50:37;19.80;99.90
51637;DHT22;37713;53.254;6.460;2023-05-19T12:53:07;19.90;99.60
51637;DHT22;37713;53.254;6.460;2023-05-19T12:55:44;19.90;98.60
51637;DHT22;37713;53.254;6.460;2023-05-19T12:58:11;19.90;99.30
51637;DHT22;37713;53.254;6.460;2023-05-19T13:00:45;19.90;99.30
51637;DHT22;37713;53.254;6.460;2023-05-19T13:03:16;20.00;99.70
51637;DHT22;37713;53.254;6.460;2023-05-19T13:05:44;20.00;99.80
51637;DHT22;37713;53.254;6.460;2023-05-19T13:08:15;20.00;99.90
51637;DHT22;37713;53.254;6.460;2023-05-19T13:10:42;20.10;99.90
51637;DHT22;37713;53.254;6.460;2023-05-19T13:13:09;20.00;99.80
51637;DHT22;37713;53.254;6.460;2023-05-19T13:15:53;20.00;99.60
51637;DHT22;37713;53.254;6.460;2023-05-19T13:18:20;20.00;99.90
51637;DHT22;37713;53.254;6.460;2023-05-19T13:20:46;19.90;99.70
51637;DHT22;37713;53.254;6.460;2023-05-19T13:23:15;19.80;99.90
51637;DHT22;37713;53.254;6.460;2023-05-19T13:25:41;19.50;99.90
51637;DHT22;37713;53.254;6.460;2023-05-19T13:28:07;19.50;99.90
51637;DHT22;37713;53.254;6.460;2023-05-19T13:30:38;19.40;99.90
51637;DHT22;37713;53.254;6.460;2023-05-19T13:33:04;19.40;99.90
51637;DHT22;37713;53.254;6.460;2023-05-19T13:35:30;19.40;99.90
51637;DHT22;37713;53.254;6.460;2023-05-19T13:38:05;19.40;99.90
51637;DHT22;37713;53.254;6.460;2023-05-19T13:40:32;19.40;99.90
51637;DHT22;37713;53.254;6.460;2023-05-19T13:43:00;19.40;99.90
51637;DHT22;37713;53.254;6.460;2023-05-19T13:45:26;19.40;99.90
51637;DHT22;37713;53.254;6.460;2023-05-19T13:47:52;19.40;99.90
51637;DHT22;37713;53.254;6.460;2023-05-19T13:50:17;19.30;99.90
51637;DHT22;37713;53.254;6.460;2023-05-19T13:52:43;19.40;99.90
51637;DHT22;37713;53.254;6.460;2023-05-19T13:55:09;19.50;99.90
51637;DHT22;37713;53.254;6.460;2023-05-19T13:57:35;19.20;99.90
51637;DHT22;37713;53.254;6.460;2023-05-19T14:00:01;19.20;99.90
51637;DHT22;37713;53.254;6.460;2023-05-19T14:02:28;19.10;99.90
51637;DHT22;37713;53.254;6.460;2023-05-19T14:04:54;19.00;99.90
51637;DHT22;37713;53.254;6.460;2023-05-19T14:07:20;18.80;99.90
51637;DHT22;37713;53.254;6.460;2023-05-19T14:09:46;18.60;99.90
51637;DHT22;37713;53.254;6.460;2023-05-19T14:12:11;18.50;99.90
51637;DHT22;37713;53.254;6.460;2023-05-19T14:14:38;18.40;99.90
51637;DHT22;37713;53.254;6.460;2023-05-19T14:17:04;18.50;99.90
51637;DHT22;37713;53.254;6.460;2023-05-19T14:19:30;18.50;99.90
51637;DHT22;37713;53.254;6.460;2023-05-19T14:21:56;18.60;99.90
51637;DHT22;37713;53.254;6.460;2023-05-19T14:24:22;18.60;99.90
51637;DHT22;37713;53.254;6.460;2023-05-19T14:26:48;18.50;99.90
51637;DHT22;37713;53.254;6.460;2023-05-19T14:29:15;18.40;99.90
51637;DHT22;37713;53.254;6.460;2023-05-19T14:31:40;18.40;99.90
51637;DHT22;37713;53.254;6.460;2023-05-19T14:34:06;18.40;99.90
51637;DHT22;37713;53.254;6.460;2023-05-19T14:36:32;18.50;99.90
51637;DHT22;37713;53.254;6.460;2023-05-19T14:39:00;18.60;99.90
51637;DHT22;37713;53.254;6.460;2023-05-19T14:41:25;18.50;99.90
51637;DHT22;37713;53.254;6.460;2023-05-19T14:43:51;18.50;99.90
51637;DHT22;37713;53.254;6.460;2023-05-19T14:46:17;18.40;99.90
51637;DHT22;37713;53.254;6.460;2023-05-19T14:48:43;18.40;99.90
51637;DHT22;37713;53.254;6.460;2023-05-19T14:51:09;18.40;99.90
51637;DHT22;37713;53.254;6.460;2023-05-19T14:53:34;18.50;99.90
51637;DHT22;37713;53.254;6.460;2023-05-19T14:56:00;18.60;99.90
51637;DHT22;37713;53.254;6.460;2023-05-19T14:58:26;18.70;99.90
51637;DHT22;37713;53.254;6.460;2023-05-19T15:00:51;18.50;99.90
51637;DHT22;37713;53.254;6.460;2023-05-19T15:03:17;18.40;99.90
51637;DHT22;37713;53.254;6.460;2023-05-19T15:05:44;18.30;99.90
51637;DHT22;37713;53.254;6.460;2023-05-19T15:08:10;18.30;99.90
51637;DHT22;37713;53.254;6.460;2023-05-19T15:10:36;18.20;99.90
51637;DHT22;37713;53.254;6.460;2023-05-19T15:13:02;18.30;99.90
51637;DHT22;37713;53.254;6.460;2023-05-19T15:15:28;18.30;99.90
51637;DHT22;37713;53.254;6.460;2023-05-19T15:17:55;18.30;99.90
51637;DHT22;37713;53.254;6.460;2023-05-19T15:20:21;18.40;99.90
51637;DHT22;37713;53.254;6.460;2023-05-19T15:22:47;18.40;99.90
51637;DHT22;37713;53.254;6.460;2023-05-19T15:25:13;18.30;99.90
51637;DHT22;37713;53.254;6.460;2023-05-19T15:27:38;18.30;99.90
51637;DHT22;37713;53.254;6.460;2023-05-19T15:30:05;18.40;99.90
51637;DHT22;37713;53.254;6.460;2023-05-19T15:32:31;18.40;99.90
51637;DHT22;37713;53.254;6.460;2023-05-19T15:34:57;18.30;99.90
51637;DHT22;37713;53.254;6.460;2023-05-19T15:37:22;18.10;99.90
51637;DHT22;37713;53.254;6.460;2023-05-19T15:39:48;18.10;99.90
51637;DHT22;37713;53.254;6.460;2023-05-19T15:42:14;18.00;99.90
51637;DHT22;37713;53.254;6.460;2023-05-19T15:44:40;18.00;99.90
51637;DHT22;37713;53.254;6.460;2023-05-19T15:47:06;17.90;99.90
51637;DHT22;37713;53.254;6.460;2023-05-19T15:49:31;17.80;99.90
51637;DHT22;37713;53.254;6.460;2023-05-19T15:51:57;17.90;99.90
51637;DHT22;37713;53.254;6.460;2023-05-19T15:54:23;17.90;99.90
51637;DHT22;37713;53.254;6.460;2023-05-19T15:56:49;17.90;99.90
51637;DHT22;37713;53.254;6.460;2023-05-19T15:59:15;18.00;99.90